Mt Fionia Swan — OVJG2 — position and weather

sailwx.info

Track history (hours):
 
Tides and Currents Weather Stations Pressure Air Temp Water Temp Dewpoint Dewpoint Depression Visibility Wind Speed Wind Dir Waves Ship Positions

Mt Fionia Swan

Last reported at 2018-Jul-22 18:49 UTC. Time now 2018-Jul-22 20:18 UTC.
Position N 36°09' W 005°23'.

Length 148 m; draft 7.6 m.

Type: Tanker. MMSI: 220441000.

Date/timePositionNaut miles runAvg speedWind from/ knotsBaromVisibWave heightAir tempDewpointWater temp
2018-Jul-22 18:49N 36°09' W 005°23'0 0.1
2018-Jul-22 18:29N 36°09' W 005°23'0 0.2
2018-Jul-22 16:38N 36°08' W 005°23'0 0.0
2018-Jul-22 14:56N 36°08' W 005°23'0 0.1
2018-Jul-22 14:14N 36°08' W 005°23'0 0.4
2018-Jul-22 13:56N 36°08' W 005°23'0 0.1
2018-Jul-22 12:20N 36°08' W 005°23'0 0.0
2018-Jul-22 11:38N 36°08' W 005°23'0 0.1
2018-Jul-22 11:26N 36°08' W 005°23'0 0.0
2018-Jul-22 10:56N 36°08' W 005°23'0 0.0
2018-Jul-22 10:26N 36°08' W 005°23'0 0.1
2018-Jul-22 09:56N 36°08' W 005°23'0 0.1
2018-Jul-22 08:34N 36°08' W 005°23'0 0.2
2018-Jul-22 08:30N 36°08' W 005°23'0 0.4
2018-Jul-22 07:59N 36°08' W 005°23'3 7.2
2018-Jul-22 07:30N 36°05' W 005°20'510.7
2018-Jul-22 07:00N 36°06' W 005°13'510.5
2018-Jul-22 06:30N 36°07' W 005°07'510.5
2018-Jul-22 06:00N 36°08' W 005°01'510.0
2018-Jul-22 05:30N 36°08' W 004°55'5 9.7
2018-Jul-22 05:00N 36°09' W 004°49'5 9.3
2018-Jul-22 04:27N 36°09' W 004°42'9 9.2
2018-Jul-22 03:28N 36°11' W 004°31'7 9.1
2018-Jul-22 02:44N 36°11' W 004°23'5 8.7
2018-Jul-22 02:12N 36°12' W 004°17'17710.5
2018-Jul-21 09:25N 37°20' W 000°53'511.9
2018-Jul-21 09:00N 37°23' W 000°49'611.9
2018-Jul-21 08:30N 37°27' W 000°43'612.3
2018-Jul-21 07:59N 37°32' W 000°37'612.3
2018-Jul-21 07:30N 37°36' W 000°32'612.6
2018-Jul-21 07:00N 37°41' W 000°27'612.4
2018-Jul-21 06:30N 37°46' W 000°23'612.3
2018-Jul-21 06:00N 37°51' W 000°19'612.0
2018-Jul-21 05:30N 37°57' W 000°15'611.8
2018-Jul-21 05:00N 38°02' W 000°11'  
2018-Jul-17 18:28N 37°04' W 001°10'711.9
2018-Jul-17 17:53N 36°60' W 001°17'612.4
2018-Jul-17 17:24N 36°56' W 001°22'18912.6
2018-Jul-17 02:21N 36°06' W 005°09'513.4
2018-Jul-17 02:00N 36°05' W 005°15'612.1
2018-Jul-17 01:30N 36°07' W 005°22'3 5.1
2018-Jul-17 01:00N 36°09' W 005°23'1 1.7
2018-Jul-17 00:25N 36°08' W 005°22'0 0.0
2018-Jul-16 23:25N 36°08' W 005°22'0 0.0
2018-Jul-16 22:37N 36°08' W 005°22'0 0.0
2018-Jul-16 22:19N 36°08' W 005°22'0 0.0
2018-Jul-16 21:55N 36°08' W 005°22'0 0.0
2018-Jul-16 21:19N 36°08' W 005°22'0 0.0
2018-Jul-16 20:55N 36°08' W 005°22'0 0.0
2018-Jul-16 20:25N 36°08' W 005°22'0 0.0
2018-Jul-16 19:49N 36°08' W 005°22'0 0.0
2018-Jul-16 19:25N 36°08' W 005°22'0 0.0
2018-Jul-16 08:10N 36°09' W 005°22'0 0.0
2018-Jul-16 08:00N 36°09' W 005°22'1 1.1
2018-Jul-16 07:30N 36°09' W 005°23'0 0.1
2018-Jul-16 06:35N 36°09' W 005°23'0 0.1
2018-Jul-16 06:23N 36°09' W 005°23'0 0.0
2018-Jul-16 05:53N 36°09' W 005°23'0 0.0
2018-Jul-15 23:05N 36°09' W 005°23'0 0.1
2018-Jul-15 23:00N 36°09' W 005°23'1 1.0
2018-Jul-15 22:26N 36°08' W 005°22'0 0.0
2018-Jul-15 21:46N 36°08' W 005°22'0 0.0
2018-Jul-15 21:28N 36°08' W 005°22'0 0.0
2018-Jul-15 17:04N 36°08' W 005°22'0 0.0
2018-Jul-15 16:52N 36°08' W 005°22'0 0.0
2018-Jul-15 16:28N 36°08' W 005°22'0 0.2
2018-Jul-15 15:52N 36°09' W 005°22'0 0.0
2018-Jul-15 15:22N 36°09' W 005°22'0 0.0
2018-Jul-15 14:58N 36°09' W 005°22'0 0.0
2018-Jul-15 13:16N 36°09' W 005°22'0 0.0
2018-Jul-15 12:46N 36°09' W 005°22'0 0.0
2018-Jul-15 12:28N 36°09' W 005°22'0 0.0
2018-Jul-15 09:40N 36°09' W 005°22'0 0.0
2018-Jul-15 09:22N 36°09' W 005°22'0 0.0
2018-Jul-15 08:52N 36°09' W 005°22'0 0.0
2018-Jul-15 08:28N 36°09' W 005°22'0 0.0
2018-Jul-15 07:52N 36°09' W 005°22'0 0.0
2018-Jul-15 07:16N 36°09' W 005°22'0 0.0
2018-Jul-15 06:52N 36°09' W 005°22'0 0.0
2018-Jul-15 06:22N 36°09' W 005°22'0 0.0
2018-Jul-15 05:58N 36°09' W 005°22'0 0.0
2018-Jul-15 00:10N 36°09' W 005°22'0 0.0
2018-Jul-14 19:52N 36°09' W 005°22'0 0.0
2018-Jul-14 19:22N 36°09' W 005°22'0 0.0
2018-Jul-14 17:40N 36°09' W 005°22'0 0.0
2018-Jul-14 17:28N 36°09' W 005°22'0 0.0
2018-Jul-14 16:58N 36°09' W 005°22'0 0.4
2018-Jul-14 16:30N 36°09' W 005°22'1 1.8
2018-Jul-14 15:56N 36°08' W 005°22'0 0.0
2018-Jul-14 15:26N 36°08' W 005°22'0 0.0
2018-Jul-14 14:50N 36°08' W 005°22'0 0.0
2018-Jul-14 14:26N 36°08' W 005°22'0 0.0
2018-Jul-14 13:26N 36°08' W 005°22'0 0.0
2018-Jul-14 12:50N 36°08' W 005°22'0 0.0
2018-Jul-14 06:20N 36°08' W 005°22'0 0.1
2018-Jul-14 05:56N 36°08' W 005°22'0 0.1
2018-Jul-14 05:14N 36°08' W 005°22'0 0.0
2018-Jul-14 04:50N 36°08' W 005°22'0 0.0
2018-Jul-13 23:14N 36°07' W 005°22'0 0.0
2018-Jul-13 23:00N 36°07' W 005°22'1 0.1
2018-Jul-13 13:21N 36°09' W 005°22'0 1.3
2018-Jul-13 12:59N 36°09' W 005°22'  
Track history (hours):
 
Tides and Currents Weather Stations Pressure Air Temp Water Temp Dewpoint Dewpoint Depression Visibility Wind Speed Wind Dir Waves Ship Positions

Mt Fionia Swan

Last reported at 2018-Jul-22 18:49 UTC. Time now 2018-Jul-22 20:18 UTC.
Position N 36°09' W 005°23'.

Length 148 m; draft 7.6 m.

Type: Tanker. MMSI: 220441000.

Date/timePositionNaut miles runAvg speedWind from/ knotsBaromVisibWave heightAir tempDewpointWater temp
2018-Jul-22 18:49N 36°09' W 005°23'0 0.1
2018-Jul-22 18:29N 36°09' W 005°23'0 0.2
2018-Jul-22 16:38N 36°08' W 005°23'0 0.0
2018-Jul-22 14:56N 36°08' W 005°23'0 0.1
2018-Jul-22 14:14N 36°08' W 005°23'0 0.4
2018-Jul-22 13:56N 36°08' W 005°23'0 0.1
2018-Jul-22 12:20N 36°08' W 005°23'0 0.0
2018-Jul-22 11:38N 36°08' W 005°23'0 0.1
2018-Jul-22 11:26N 36°08' W 005°23'0 0.0
2018-Jul-22 10:56N 36°08' W 005°23'0 0.0
2018-Jul-22 10:26N 36°08' W 005°23'0 0.1
2018-Jul-22 09:56N 36°08' W 005°23'0 0.1
2018-Jul-22 08:34N 36°08' W 005°23'0 0.2
2018-Jul-22 08:30N 36°08' W 005°23'0 0.4
2018-Jul-22 07:59N 36°08' W 005°23'3 7.2
2018-Jul-22 07:30N 36°05' W 005°20'510.7
2018-Jul-22 07:00N 36°06' W 005°13'510.5
2018-Jul-22 06:30N 36°07' W 005°07'510.5
2018-Jul-22 06:00N 36°08' W 005°01'510.0
2018-Jul-22 05:30N 36°08' W 004°55'5 9.7
2018-Jul-22 05:00N 36°09' W 004°49'5 9.3
2018-Jul-22 04:27N 36°09' W 004°42'9 9.2
2018-Jul-22 03:28N 36°11' W 004°31'7 9.1
2018-Jul-22 02:44N 36°11' W 004°23'5 8.7
2018-Jul-22 02:12N 36°12' W 004°17'17710.5
2018-Jul-21 09:25N 37°20' W 000°53'511.9
2018-Jul-21 09:00N 37°23' W 000°49'611.9
2018-Jul-21 08:30N 37°27' W 000°43'612.3
2018-Jul-21 07:59N 37°32' W 000°37'612.3
2018-Jul-21 07:30N 37°36' W 000°32'612.6
2018-Jul-21 07:00N 37°41' W 000°27'612.4
2018-Jul-21 06:30N 37°46' W 000°23'612.3
2018-Jul-21 06:00N 37°51' W 000°19'612.0
2018-Jul-21 05:30N 37°57' W 000°15'611.8
2018-Jul-21 05:00N 38°02' W 000°11'  
2018-Jul-17 18:28N 37°04' W 001°10'711.9
2018-Jul-17 17:53N 36°60' W 001°17'612.4
2018-Jul-17 17:24N 36°56' W 001°22'18912.6
2018-Jul-17 02:21N 36°06' W 005°09'513.4
2018-Jul-17 02:00N 36°05' W 005°15'612.1
2018-Jul-17 01:30N 36°07' W 005°22'3 5.1
2018-Jul-17 01:00N 36°09' W 005°23'1 1.7
2018-Jul-17 00:25N 36°08' W 005°22'0 0.0
2018-Jul-16 23:25N 36°08' W 005°22'0 0.0
2018-Jul-16 22:37N 36°08' W 005°22'0 0.0
2018-Jul-16 22:19N 36°08' W 005°22'0 0.0
2018-Jul-16 21:55N 36°08' W 005°22'0 0.0
2018-Jul-16 21:19N 36°08' W 005°22'0 0.0
2018-Jul-16 20:55N 36°08' W 005°22'0 0.0
2018-Jul-16 20:25N 36°08' W 005°22'0 0.0
2018-Jul-16 19:49N 36°08' W 005°22'0 0.0
2018-Jul-16 19:25N 36°08' W 005°22'0 0.0
2018-Jul-16 08:10N 36°09' W 005°22'0 0.0
2018-Jul-16 08:00N 36°09' W 005°22'1 1.1
2018-Jul-16 07:30N 36°09' W 005°23'0 0.1
2018-Jul-16 06:35N 36°09' W 005°23'0 0.1
2018-Jul-16 06:23N 36°09' W 005°23'0 0.0
2018-Jul-16 05:53N 36°09' W 005°23'0 0.0
2018-Jul-15 23:05N 36°09' W 005°23'0 0.1
2018-Jul-15 23:00N 36°09' W 005°23'1 1.0
2018-Jul-15 22:26N 36°08' W 005°22'0 0.0
2018-Jul-15 21:46N 36°08' W 005°22'0 0.0
2018-Jul-15 21:28N 36°08' W 005°22'0 0.0
2018-Jul-15 17:04N 36°08' W 005°22'0 0.0
2018-Jul-15 16:52N 36°08' W 005°22'0 0.0
2018-Jul-15 16:28N 36°08' W 005°22'0 0.2
2018-Jul-15 15:52N 36°09' W 005°22'0 0.0
2018-Jul-15 15:22N 36°09' W 005°22'0 0.0
2018-Jul-15 14:58N 36°09' W 005°22'0 0.0
2018-Jul-15 13:16N 36°09' W 005°22'0 0.0
2018-Jul-15 12:46N 36°09' W 005°22'0 0.0
2018-Jul-15 12:28N 36°09' W 005°22'0 0.0
2018-Jul-15 09:40N 36°09' W 005°22'0 0.0
2018-Jul-15 09:22N 36°09' W 005°22'0 0.0
2018-Jul-15 08:52N 36°09' W 005°22'0 0.0
2018-Jul-15 08:28N 36°09' W 005°22'0 0.0
2018-Jul-15 07:52N 36°09' W 005°22'0 0.0
2018-Jul-15 07:16N 36°09' W 005°22'0 0.0
2018-Jul-15 06:52N 36°09' W 005°22'0 0.0
2018-Jul-15 06:22N 36°09' W 005°22'0 0.0
2018-Jul-15 05:58N 36°09' W 005°22'0 0.0
2018-Jul-15 00:10N 36°09' W 005°22'0 0.0
2018-Jul-14 19:52N 36°09' W 005°22'0 0.0
2018-Jul-14 19:22N 36°09' W 005°22'0 0.0
2018-Jul-14 17:40N 36°09' W 005°22'0 0.0
2018-Jul-14 17:28N 36°09' W 005°22'0 0.0
2018-Jul-14 16:58N 36°09' W 005°22'0 0.4
2018-Jul-14 16:30N 36°09' W 005°22'1 1.8
2018-Jul-14 15:56N 36°08' W 005°22'0 0.0
2018-Jul-14 15:26N 36°08' W 005°22'0 0.0
2018-Jul-14 14:50N 36°08' W 005°22'0 0.0
2018-Jul-14 14:26N 36°08' W 005°22'0 0.0
2018-Jul-14 13:26N 36°08' W 005°22'0 0.0
2018-Jul-14 12:50N 36°08' W 005°22'0 0.0
2018-Jul-14 06:20N 36°08' W 005°22'0 0.1
2018-Jul-14 05:56N 36°08' W 005°22'0 0.1
2018-Jul-14 05:14N 36°08' W 005°22'0 0.0
2018-Jul-14 04:50N 36°08' W 005°22'0 0.0
2018-Jul-13 23:14N 36°07' W 005°22'0 0.0
2018-Jul-13 23:00N 36°07' W 005°22'1 0.1
2018-Jul-13 13:21N 36°09' W 005°22'0 1.3
2018-Jul-13 12:59N 36°09' W 005°22'  

Dump ship's entire track history